sensor_id;sensor_type;location;lat;lon;timestamp;P1;durP1;ratioP1;P2;durP2;ratioP2
19161;SDS011;9713;48.140;11.530;2023-04-24T00:02:50;1.00;;;0.90;;
19161;SDS011;9713;48.140;11.530;2023-04-24T00:06:34;1.63;;;1.00;;
19161;SDS011;9713;48.140;11.530;2023-04-24T00:10:19;2.93;;;0.90;;
19161;SDS011;9713;48.140;11.530;2023-04-24T00:14:02;0.97;;;0.80;;
19161;SDS011;9713;48.140;11.530;2023-04-24T00:17:45;1.03;;;0.80;;
19161;SDS011;9713;48.140;11.530;2023-04-24T00:21:28;1.27;;;0.97;;
19161;SDS011;9713;48.140;11.530;2023-04-24T00:25:11;2.17;;;0.80;;
19161;SDS011;9713;48.140;11.530;2023-04-24T00:28:55;1.37;;;0.70;;
19161;SDS011;9713;48.140;11.530;2023-04-24T00:32:38;8.93;;;1.00;;
19161;SDS011;9713;48.140;11.530;2023-04-24T00:36:21;1.07;;;0.80;;
19161;SDS011;9713;48.140;11.530;2023-04-24T00:40:04;2.57;;;0.83;;
19161;SDS011;9713;48.140;11.530;2023-04-24T00:43:48;0.87;;;0.60;;
19161;SDS011;9713;48.140;11.530;2023-04-24T00:47:32;1.30;;;0.70;;
19161;SDS011;9713;48.140;11.530;2023-04-24T00:51:15;1.23;;;0.70;;
19161;SDS011;9713;48.140;11.530;2023-04-24T00:55:00;0.80;;;0.60;;
19161;SDS011;9713;48.140;11.530;2023-04-24T00:58:42;0.70;;;0.50;;
19161;SDS011;9713;48.140;11.530;2023-04-24T01:02:25;1.20;;;0.60;;
19161;SDS011;9713;48.140;11.530;2023-04-24T01:06:10;0.70;;;0.60;;
19161;SDS011;9713;48.140;11.530;2023-04-24T01:09:52;1.90;;;0.70;;
19161;SDS011;9713;48.140;11.530;2023-04-24T01:13:35;0.60;;;0.50;;
19161;SDS011;9713;48.140;11.530;2023-04-24T01:17:18;0.83;;;0.70;;
19161;SDS011;9713;48.140;11.530;2023-04-24T01:21:02;0.80;;;0.50;;
19161;SDS011;9713;48.140;11.530;2023-04-24T01:24:47;1.33;;;0.43;;
19161;SDS011;9713;48.140;11.530;2023-04-24T01:28:32;2.70;;;0.50;;
19161;SDS011;9713;48.140;11.530;2023-04-24T01:32:14;1.07;;;0.50;;
19161;SDS011;9713;48.140;11.530;2023-04-24T01:36:01;0.60;;;0.50;;
19161;SDS011;9713;48.140;11.530;2023-04-24T01:39:43;0.70;;;0.50;;
19161;SDS011;9713;48.140;11.530;2023-04-24T01:43:27;0.80;;;0.47;;
19161;SDS011;9713;48.140;11.530;2023-04-24T01:47:10;0.40;;;0.40;;
19161;SDS011;9713;48.140;11.530;2023-04-24T01:50:53;0.90;;;0.57;;
19161;SDS011;9713;48.140;11.530;2023-04-24T01:54:36;0.70;;;0.50;;
19161;SDS011;9713;48.140;11.530;2023-04-24T01:58:19;0.40;;;0.40;;
19161;SDS011;9713;48.140;11.530;2023-04-24T02:02:03;0.60;;;0.50;;
19161;SDS011;9713;48.140;11.530;2023-04-24T02:05:46;0.70;;;0.40;;
19161;SDS011;9713;48.140;11.530;2023-04-24T02:09:28;0.50;;;0.40;;
19161;SDS011;9713;48.140;11.530;2023-04-24T02:13:11;1.57;;;0.50;;
19161;SDS011;9713;48.140;11.530;2023-04-24T02:16:54;1.03;;;0.40;;
19161;SDS011;9713;48.140;11.530;2023-04-24T02:20:38;0.83;;;0.60;;
19161;SDS011;9713;48.140;11.530;2023-04-24T02:24:21;2.83;;;0.50;;
19161;SDS011;9713;48.140;11.530;2023-04-24T02:28:04;1.97;;;0.40;;
19161;SDS011;9713;48.140;11.530;2023-04-24T02:31:46;1.10;;;0.50;;
19161;SDS011;9713;48.140;11.530;2023-04-24T02:35:29;0.90;;;0.50;;
19161;SDS011;9713;48.140;11.530;2023-04-24T02:39:13;1.30;;;0.50;;
19161;SDS011;9713;48.140;11.530;2023-04-24T02:42:57;0.60;;;0.50;;
19161;SDS011;9713;48.140;11.530;2023-04-24T02:46:40;1.40;;;0.53;;
19161;SDS011;9713;48.140;11.530;2023-04-24T02:50:23;0.60;;;0.40;;
19161;SDS011;9713;48.140;11.530;2023-04-24T02:54:06;0.53;;;0.40;;
19161;SDS011;9713;48.140;11.530;2023-04-24T02:57:51;0.80;;;0.50;;
19161;SDS011;9713;48.140;11.530;2023-04-24T03:01:34;1.10;;;0.47;;
19161;SDS011;9713;48.140;11.530;2023-04-24T03:05:17;0.60;;;0.50;;
19161;SDS011;9713;48.140;11.530;2023-04-24T03:08:59;1.13;;;0.40;;
19161;SDS011;9713;48.140;11.530;2023-04-24T03:12:42;0.40;;;0.40;;
19161;SDS011;9713;48.140;11.530;2023-04-24T03:16:26;0.70;;;0.50;;
19161;SDS011;9713;48.140;11.530;2023-04-24T03:20:09;0.47;;;0.47;;
19161;SDS011;9713;48.140;11.530;2023-04-24T03:23:53;1.17;;;0.50;;
19161;SDS011;9713;48.140;11.530;2023-04-24T03:27:36;1.87;;;0.50;;
19161;SDS011;9713;48.140;11.530;2023-04-24T03:31:20;0.70;;;0.60;;
19161;SDS011;9713;48.140;11.530;2023-04-24T03:35:05;1.97;;;0.60;;
19161;SDS011;9713;48.140;11.530;2023-04-24T03:38:48;3.27;;;0.50;;
19161;SDS011;9713;48.140;11.530;2023-04-24T03:42:31;3.67;;;0.70;;
19161;SDS011;9713;48.140;11.530;2023-04-24T03:46:14;1.43;;;0.60;;
19161;SDS011;9713;48.140;11.530;2023-04-24T03:49:57;1.10;;;0.60;;
19161;SDS011;9713;48.140;11.530;2023-04-24T03:53:41;0.57;;;0.50;;
19161;SDS011;9713;48.140;11.530;2023-04-24T03:57:23;1.03;;;0.63;;
19161;SDS011;9713;48.140;11.530;2023-04-24T04:01:08;2.67;;;1.20;;
19161;SDS011;9713;48.140;11.530;2023-04-24T04:04:51;1.00;;;0.70;;
19161;SDS011;9713;48.140;11.530;2023-04-24T04:08:36;1.70;;;0.70;;
19161;SDS011;9713;48.140;11.530;2023-04-24T04:12:20;2.43;;;0.53;;
19161;SDS011;9713;48.140;11.530;2023-04-24T04:16:02;1.27;;;0.60;;
19161;SDS011;9713;48.140;11.530;2023-04-24T04:19:45;1.67;;;0.73;;
19161;SDS011;9713;48.140;11.530;2023-04-24T04:23:28;2.00;;;0.63;;
19161;SDS011;9713;48.140;11.530;2023-04-24T04:27:11;1.17;;;0.70;;
19161;SDS011;9713;48.140;11.530;2023-04-24T04:30:55;1.47;;;0.63;;
19161;SDS011;9713;48.140;11.530;2023-04-24T04:34:38;1.13;;;0.60;;
19161;SDS011;9713;48.140;11.530;2023-04-24T04:38:21;1.17;;;0.60;;
19161;SDS011;9713;48.140;11.530;2023-04-24T04:42:04;1.27;;;0.63;;
19161;SDS011;9713;48.140;11.530;2023-04-24T04:45:50;2.00;;;0.80;;
19161;SDS011;9713;48.140;11.530;2023-04-24T04:49:34;1.37;;;0.87;;
19161;SDS011;9713;48.140;11.530;2023-04-24T04:53:18;0.90;;;0.80;;
19161;SDS011;9713;48.140;11.530;2023-04-24T04:57:00;0.80;;;0.60;;
19161;SDS011;9713;48.140;11.530;2023-04-24T05:00:44;1.60;;;0.60;;
19161;SDS011;9713;48.140;11.530;2023-04-24T05:04:27;1.20;;;0.50;;
19161;SDS011;9713;48.140;11.530;2023-04-24T05:08:12;1.00;;;0.70;;
19161;SDS011;9713;48.140;11.530;2023-04-24T05:12:07;0.50;;;0.50;;
19161;SDS011;9713;48.140;11.530;2023-04-24T05:15:49;1.60;;;0.70;;
19161;SDS011;9713;48.140;11.530;2023-04-24T05:19:32;1.33;;;0.50;;
19161;SDS011;9713;48.140;11.530;2023-04-24T05:23:18;1.57;;;0.50;;
19161;SDS011;9713;48.140;11.530;2023-04-24T05:27:01;0.40;;;0.40;;
19161;SDS011;9713;48.140;11.530;2023-04-24T05:30:45;0.50;;;0.50;;
19161;SDS011;9713;48.140;11.530;2023-04-24T05:34:28;2.03;;;0.60;;
19161;SDS011;9713;48.140;11.530;2023-04-24T05:38:11;0.40;;;0.40;;
19161;SDS011;9713;48.140;11.530;2023-04-24T05:41:55;0.63;;;0.50;;
19161;SDS011;9713;48.140;11.530;2023-04-24T05:45:39;0.50;;;0.50;;
19161;SDS011;9713;48.140;11.530;2023-04-24T05:49:22;0.87;;;0.50;;
19161;SDS011;9713;48.140;11.530;2023-04-24T05:53:05;0.67;;;0.40;;
19161;SDS011;9713;48.140;11.530;2023-04-24T05:56:48;2.03;;;0.47;;
19161;SDS011;9713;48.140;11.530;2023-04-24T06:00:33;0.97;;;0.50;;
19161;SDS011;9713;48.140;11.530;2023-04-24T06:04:16;0.80;;;0.50;;
19161;SDS011;9713;48.140;11.530;2023-04-24T06:07:59;0.43;;;0.40;;
19161;SDS011;9713;48.140;11.530;2023-04-24T06:11:42;1.17;;;0.50;;
19161;SDS011;9713;48.140;11.530;2023-04-24T06:15:26;0.47;;;0.37;;
19161;SDS011;9713;48.140;11.530;2023-04-24T06:19:11;0.63;;;0.50;;
19161;SDS011;9713;48.140;11.530;2023-04-24T06:22:57;1.70;;;0.40;;
19161;SDS011;9713;48.140;11.530;2023-04-24T06:26:40;1.40;;;0.40;;
19161;SDS011;9713;48.140;11.530;2023-04-24T06:30:23;0.40;;;0.40;;
19161;SDS011;9713;48.140;11.530;2023-04-24T06:34:06;0.30;;;0.30;;
19161;SDS011;9713;48.140;11.530;2023-04-24T06:37:50;0.73;;;0.47;;
19161;SDS011;9713;48.140;11.530;2023-04-24T06:41:33;7.50;;;2.23;;
19161;SDS011;9713;48.140;11.530;2023-04-24T06:45:16;1.93;;;0.30;;
19161;SDS011;9713;48.140;11.530;2023-04-24T06:48:58;4.23;;;0.40;;
19161;SDS011;9713;48.140;11.530;2023-04-24T06:52:42;0.50;;;0.30;;
19161;SDS011;9713;48.140;11.530;2023-04-24T06:56:26;0.40;;;0.30;;
19161;SDS011;9713;48.140;11.530;2023-04-24T07:00:10;1.83;;;0.40;;
19161;SDS011;9713;48.140;11.530;2023-04-24T07:03:53;0.43;;;0.30;;
19161;SDS011;9713;48.140;11.530;2023-04-24T07:07:39;1.93;;;0.40;;
19161;SDS011;9713;48.140;11.530;2023-04-24T07:11:23;0.33;;;0.33;;
19161;SDS011;9713;48.140;11.530;2023-04-24T07:15:12;0.30;;;0.30;;
19161;SDS011;9713;48.140;11.530;2023-04-24T07:18:54;0.70;;;0.43;;
19161;SDS011;9713;48.140;11.530;2023-04-24T07:22:37;2.00;;;0.40;;
19161;SDS011;9713;48.140;11.530;2023-04-24T07:26:20;1.27;;;0.83;;
19161;SDS011;9713;48.140;11.530;2023-04-24T07:30:03;1.40;;;0.40;;
19161;SDS011;9713;48.140;11.530;2023-04-24T07:33:47;0.40;;;0.40;;
19161;SDS011;9713;48.140;11.530;2023-04-24T07:37:30;1.40;;;0.70;;
19161;SDS011;9713;48.140;11.530;2023-04-24T07:41:13;0.53;;;0.37;;
19161;SDS011;9713;48.140;11.530;2023-04-24T07:44:56;1.70;;;0.40;;
19161;SDS011;9713;48.140;11.530;2023-04-24T07:48:40;1.30;;;0.40;;
19161;SDS011;9713;48.140;11.530;2023-04-24T07:52:24;1.20;;;0.43;;
19161;SDS011;9713;48.140;11.530;2023-04-24T07:56:07;0.70;;;0.50;;
19161;SDS011;9713;48.140;11.530;2023-04-24T07:59:50;1.67;;;0.40;;
19161;SDS011;9713;48.140;11.530;2023-04-24T08:03:33;1.23;;;0.60;;
19161;SDS011;9713;48.140;11.530;2023-04-24T08:07:16;0.47;;;0.40;;
19161;SDS011;9713;48.140;11.530;2023-04-24T08:11:00;0.93;;;0.50;;
19161;SDS011;9713;48.140;11.530;2023-04-24T08:14:42;2.10;;;0.40;;
19161;SDS011;9713;48.140;11.530;2023-04-24T08:18:25;0.50;;;0.30;;
19161;SDS011;9713;48.140;11.530;2023-04-24T08:22:08;3.90;;;0.90;;
19161;SDS011;9713;48.140;11.530;2023-04-24T08:25:50;0.70;;;0.40;;
19161;SDS011;9713;48.140;11.530;2023-04-24T08:29:35;0.90;;;0.40;;
19161;SDS011;9713;48.140;11.530;2023-04-24T08:33:17;0.70;;;0.30;;
19161;SDS011;9713;48.140;11.530;2023-04-24T08:37:00;0.47;;;0.47;;
19161;SDS011;9713;48.140;11.530;2023-04-24T08:40:43;0.80;;;0.67;;
19161;SDS011;9713;48.140;11.530;2023-04-24T08:44:27;1.10;;;0.80;;
19161;SDS011;9713;48.140;11.530;2023-04-24T08:48:11;1.47;;;1.00;;
19161;SDS011;9713;48.140;11.530;2023-04-24T08:52:10;1.50;;;0.90;;
19161;SDS011;9713;48.140;11.530;2023-04-24T08:55:55;1.87;;;1.20;;
19161;SDS011;9713;48.140;11.530;2023-04-24T08:59:38;2.30;;;0.90;;
19161;SDS011;9713;48.140;11.530;2023-04-24T09:03:28;1.53;;;1.00;;
19161;SDS011;9713;48.140;11.530;2023-04-24T09:07:12;2.50;;;1.00;;
19161;SDS011;9713;48.140;11.530;2023-04-24T09:10:56;1.77;;;1.00;;
19161;SDS011;9713;48.140;11.530;2023-04-24T09:14:43;1.33;;;0.90;;
19161;SDS011;9713;48.140;11.530;2023-04-24T09:18:26;1.77;;;0.83;;
19161;SDS011;9713;48.140;11.530;2023-04-24T09:22:11;1.70;;;0.90;;
19161;SDS011;9713;48.140;11.530;2023-04-24T09:25:54;2.30;;;1.40;;
19161;SDS011;9713;48.140;11.530;2023-04-24T09:29:37;1.40;;;0.90;;
19161;SDS011;9713;48.140;11.530;2023-04-24T09:33:20;1.93;;;1.30;;
19161;SDS011;9713;48.140;11.530;2023-04-24T09:37:04;3.70;;;1.20;;
19161;SDS011;9713;48.140;11.530;2023-04-24T09:40:47;2.90;;;1.20;;
19161;SDS011;9713;48.140;11.530;2023-04-24T09:44:30;1.80;;;0.97;;
19161;SDS011;9713;48.140;11.530;2023-04-24T09:48:16;2.13;;;1.10;;
19161;SDS011;9713;48.140;11.530;2023-04-24T09:52:02;1.40;;;1.10;;
19161;SDS011;9713;48.140;11.530;2023-04-24T09:55:47;1.30;;;1.03;;
19161;SDS011;9713;48.140;11.530;2023-04-24T09:59:31;2.63;;;0.90;;
19161;SDS011;9713;48.140;11.530;2023-04-24T10:03:17;1.67;;;1.30;;
19161;SDS011;9713;48.140;11.530;2023-04-24T10:07:00;4.23;;;1.20;;
19161;SDS011;9713;48.140;11.530;2023-04-24T10:10:49;3.83;;;1.20;;
19161;SDS011;9713;48.140;11.530;2023-04-24T10:14:31;1.50;;;1.07;;
19161;SDS011;9713;48.140;11.530;2023-04-24T10:18:14;1.73;;;1.10;;
19161;SDS011;9713;48.140;11.530;2023-04-24T10:21:58;1.70;;;1.27;;
19161;SDS011;9713;48.140;11.530;2023-04-24T10:25:40;1.60;;;1.37;;
19161;SDS011;9713;48.140;11.530;2023-04-24T10:29:24;5.03;;;1.30;;
19161;SDS011;9713;48.140;11.530;2023-04-24T10:33:07;5.13;;;1.30;;
19161;SDS011;9713;48.140;11.530;2023-04-24T10:36:51;1.33;;;1.20;;
19161;SDS011;9713;48.140;11.530;2023-04-24T10:40:37;3.53;;;1.40;;
19161;SDS011;9713;48.140;11.530;2023-04-24T10:44:20;1.90;;;1.30;;
19161;SDS011;9713;48.140;11.530;2023-04-24T10:48:06;2.30;;;1.20;;
19161;SDS011;9713;48.140;11.530;2023-04-24T10:51:53;1.60;;;0.87;;
19161;SDS011;9713;48.140;11.530;2023-04-24T10:55:44;1.00;;;0.90;;
19161;SDS011;9713;48.140;11.530;2023-04-24T10:59:29;2.47;;;0.70;;
19161;SDS011;9713;48.140;11.530;2023-04-24T11:03:27;2.77;;;0.97;;
19161;SDS011;9713;48.140;11.530;2023-04-24T11:07:11;1.37;;;0.80;;
19161;SDS011;9713;48.140;11.530;2023-04-24T11:10:55;1.20;;;0.70;;
19161;SDS011;9713;48.140;11.530;2023-04-24T11:14:59;1.70;;;0.80;;
19161;SDS011;9713;48.140;11.530;2023-04-24T11:18:45;2.47;;;1.00;;
19161;SDS011;9713;48.140;11.530;2023-04-24T11:22:36;1.67;;;1.00;;
19161;SDS011;9713;48.140;11.530;2023-04-24T11:26:21;1.20;;;1.10;;
19161;SDS011;9713;48.140;11.530;2023-04-24T11:30:06;3.63;;;1.70;;
19161;SDS011;9713;48.140;11.530;2023-04-24T11:33:50;2.30;;;1.33;;
19161;SDS011;9713;48.140;11.530;2023-04-24T11:37:33;1.50;;;1.23;;
19161;SDS011;9713;48.140;11.530;2023-04-24T11:41:18;2.60;;;1.30;;
19161;SDS011;9713;48.140;11.530;2023-04-24T11:45:01;1.97;;;1.50;;
19161;SDS011;9713;48.140;11.530;2023-04-24T11:48:45;4.07;;;1.40;;
19161;SDS011;9713;48.140;11.530;2023-04-24T11:52:29;2.13;;;1.30;;
19161;SDS011;9713;48.140;11.530;2023-04-24T11:56:12;1.40;;;1.07;;
19161;SDS011;9713;48.140;11.530;2023-04-24T12:00:02;1.83;;;1.10;;
19161;SDS011;9713;48.140;11.530;2023-04-24T12:03:48;2.17;;;1.00;;
19161;SDS011;9713;48.140;11.530;2023-04-24T12:07:39;1.23;;;0.97;;
19161;SDS011;9713;48.140;11.530;2023-04-24T12:11:23;2.50;;;1.10;;
19161;SDS011;9713;48.140;11.530;2023-04-24T12:15:07;2.17;;;1.27;;
19161;SDS011;9713;48.140;11.530;2023-04-24T12:18:51;2.63;;;1.30;;
19161;SDS011;9713;48.140;11.530;2023-04-24T12:22:44;2.77;;;1.57;;
19161;SDS011;9713;48.140;11.530;2023-04-24T12:26:29;2.70;;;1.10;;
19161;SDS011;9713;48.140;11.530;2023-04-24T12:30:12;2.33;;;1.17;;
19161;SDS011;9713;48.140;11.530;2023-04-24T12:33:56;2.70;;;1.10;;
19161;SDS011;9713;48.140;11.530;2023-04-24T12:37:41;1.50;;;1.20;;
19161;SDS011;9713;48.140;11.530;2023-04-24T12:41:27;1.80;;;1.10;;
19161;SDS011;9713;48.140;11.530;2023-04-24T12:45:13;2.50;;;1.03;;
19161;SDS011;9713;48.140;11.530;2023-04-24T12:48:56;1.40;;;0.90;;
19161;SDS011;9713;48.140;11.530;2023-04-24T12:52:39;3.13;;;1.00;;
19161;SDS011;9713;48.140;11.530;2023-04-24T12:56:23;1.50;;;0.93;;
19161;SDS011;9713;48.140;11.530;2023-04-24T13:00:07;1.73;;;1.03;;
19161;SDS011;9713;48.140;11.530;2023-04-24T13:03:51;2.23;;;1.20;;
19161;SDS011;9713;48.140;11.530;2023-04-24T13:07:33;2.63;;;1.10;;
19161;SDS011;9713;48.140;11.530;2023-04-24T13:11:16;2.20;;;1.37;;
19161;SDS011;9713;48.140;11.530;2023-04-24T13:15:00;2.03;;;1.20;;
19161;SDS011;9713;48.140;11.530;2023-04-24T13:18:47;2.37;;;1.30;;
19161;SDS011;9713;48.140;11.530;2023-04-24T13:22:30;3.87;;;1.30;;
19161;SDS011;9713;48.140;11.530;2023-04-24T13:26:13;5.07;;;1.50;;
19161;SDS011;9713;48.140;11.530;2023-04-24T13:29:55;3.03;;;1.57;;
19161;SDS011;9713;48.140;11.530;2023-04-24T13:33:39;3.07;;;1.50;;
19161;SDS011;9713;48.140;11.530;2023-04-24T13:37:22;3.47;;;1.47;;
19161;SDS011;9713;48.140;11.530;2023-04-24T13:41:05;1.77;;;1.20;;
19161;SDS011;9713;48.140;11.530;2023-04-24T13:44:47;2.57;;;1.20;;
19161;SDS011;9713;48.140;11.530;2023-04-24T13:48:32;2.37;;;1.13;;
19161;SDS011;9713;48.140;11.530;2023-04-24T13:52:16;2.60;;;1.20;;
19161;SDS011;9713;48.140;11.530;2023-04-24T13:55:59;2.37;;;1.43;;
19161;SDS011;9713;48.140;11.530;2023-04-24T13:59:41;3.90;;;1.60;;
19161;SDS011;9713;48.140;11.530;2023-04-24T14:03:24;1.70;;;1.47;;
19161;SDS011;9713;48.140;11.530;2023-04-24T14:07:07;2.50;;;1.37;;
19161;SDS011;9713;48.140;11.530;2023-04-24T14:10:51;2.90;;;1.40;;
19161;SDS011;9713;48.140;11.530;2023-04-24T14:14:34;3.40;;;1.43;;
19161;SDS011;9713;48.140;11.530;2023-04-24T14:18:16;3.40;;;1.40;;
19161;SDS011;9713;48.140;11.530;2023-04-24T14:22:00;2.57;;;1.60;;
19161;SDS011;9713;48.140;11.530;2023-04-24T14:25:42;3.40;;;1.33;;
19161;SDS011;9713;48.140;11.530;2023-04-24T14:29:27;3.07;;;1.30;;
19161;SDS011;9713;48.140;11.530;2023-04-24T14:33:09;2.30;;;1.50;;
19161;SDS011;9713;48.140;11.530;2023-04-24T14:36:53;2.63;;;1.50;;
19161;SDS011;9713;48.140;11.530;2023-04-24T14:40:36;2.80;;;1.70;;
19161;SDS011;9713;48.140;11.530;2023-04-24T14:44:40;3.53;;;1.80;;
19161;SDS011;9713;48.140;11.530;2023-04-24T14:48:25;2.70;;;1.60;;
19161;SDS011;9713;48.140;11.530;2023-04-24T14:52:08;2.73;;;1.63;;
19161;SDS011;9713;48.140;11.530;2023-04-24T14:55:51;2.80;;;1.30;;
19161;SDS011;9713;48.140;11.530;2023-04-24T14:59:34;2.30;;;1.47;;
19161;SDS011;9713;48.140;11.530;2023-04-24T15:03:18;4.67;;;1.57;;
19161;SDS011;9713;48.140;11.530;2023-04-24T15:07:02;6.83;;;1.60;;
19161;SDS011;9713;48.140;11.530;2023-04-24T15:10:44;2.03;;;1.37;;
19161;SDS011;9713;48.140;11.530;2023-04-24T15:14:27;2.83;;;1.97;;
19161;SDS011;9713;48.140;11.530;2023-04-24T15:18:10;4.67;;;1.40;;
19161;SDS011;9713;48.140;11.530;2023-04-24T15:21:54;1.40;;;1.20;;
19161;SDS011;9713;48.140;11.530;2023-04-24T15:25:37;3.10;;;1.50;;
19161;SDS011;9713;48.140;11.530;2023-04-24T15:29:22;1.93;;;1.37;;
19161;SDS011;9713;48.140;11.530;2023-04-24T15:33:05;2.53;;;1.40;;
19161;SDS011;9713;48.140;11.530;2023-04-24T15:36:47;3.13;;;1.40;;
19161;SDS011;9713;48.140;11.530;2023-04-24T15:40:32;3.43;;;1.17;;
19161;SDS011;9713;48.140;11.530;2023-04-24T15:44:15;5.03;;;1.33;;
19161;SDS011;9713;48.140;11.530;2023-04-24T15:47:57;1.93;;;1.13;;
19161;SDS011;9713;48.140;11.530;2023-04-24T15:51:40;2.33;;;1.20;;
19161;SDS011;9713;48.140;11.530;2023-04-24T15:55:23;4.03;;;1.30;;
19161;SDS011;9713;48.140;11.530;2023-04-24T15:59:07;2.30;;;1.47;;
19161;SDS011;9713;48.140;11.530;2023-04-24T16:02:49;2.70;;;1.10;;
19161;SDS011;9713;48.140;11.530;2023-04-24T16:06:32;2.63;;;1.53;;
19161;SDS011;9713;48.140;11.530;2023-04-24T16:10:15;3.40;;;1.20;;
19161;SDS011;9713;48.140;11.530;2023-04-24T16:13:58;1.67;;;1.00;;
19161;SDS011;9713;48.140;11.530;2023-04-24T16:17:42;2.47;;;1.17;;
19161;SDS011;9713;48.140;11.530;2023-04-24T16:21:24;3.63;;;1.23;;
19161;SDS011;9713;48.140;11.530;2023-04-24T16:25:07;1.43;;;1.20;;
19161;SDS011;9713;48.140;11.530;2023-04-24T16:28:50;3.60;;;1.07;;
19161;SDS011;9713;48.140;11.530;2023-04-24T16:32:33;2.70;;;1.40;;
19161;SDS011;9713;48.140;11.530;2023-04-24T16:36:17;7.00;;;2.90;;
19161;SDS011;9713;48.140;11.530;2023-04-24T16:40:02;1.53;;;1.10;;
19161;SDS011;9713;48.140;11.530;2023-04-24T16:43:50;2.20;;;1.30;;
19161;SDS011;9713;48.140;11.530;2023-04-24T16:47:33;2.43;;;1.20;;
19161;SDS011;9713;48.140;11.530;2023-04-24T16:51:17;2.60;;;1.33;;
19161;SDS011;9713;48.140;11.530;2023-04-24T16:55:00;1.40;;;0.90;;
19161;SDS011;9713;48.140;11.530;2023-04-24T16:58:43;3.20;;;1.00;;
19161;SDS011;9713;48.140;11.530;2023-04-24T17:02:26;2.63;;;1.20;;
19161;SDS011;9713;48.140;11.530;2023-04-24T17:06:09;2.77;;;1.00;;
19161;SDS011;9713;48.140;11.530;2023-04-24T17:09:53;3.27;;;1.07;;
19161;SDS011;9713;48.140;11.530;2023-04-24T17:13:36;2.20;;;1.00;;
19161;SDS011;9713;48.140;11.530;2023-04-24T17:17:18;1.33;;;0.90;;
19161;SDS011;9713;48.140;11.530;2023-04-24T17:21:05;1.80;;;0.93;;
19161;SDS011;9713;48.140;11.530;2023-04-24T17:24:48;2.23;;;1.57;;
19161;SDS011;9713;48.140;11.530;2023-04-24T17:28:32;1.33;;;0.90;;
19161;SDS011;9713;48.140;11.530;2023-04-24T17:32:16;4.03;;;1.00;;
19161;SDS011;9713;48.140;11.530;2023-04-24T17:35:59;3.33;;;1.20;;
19161;SDS011;9713;48.140;11.530;2023-04-24T17:39:52;2.70;;;1.10;;
19161;SDS011;9713;48.140;11.530;2023-04-24T17:43:37;1.67;;;1.00;;
19161;SDS011;9713;48.140;11.530;2023-04-24T17:47:19;1.20;;;0.90;;
19161;SDS011;9713;48.140;11.530;2023-04-24T17:51:02;1.53;;;1.00;;
19161;SDS011;9713;48.140;11.530;2023-04-24T17:54:45;1.87;;;1.00;;
19161;SDS011;9713;48.140;11.530;2023-04-24T17:58:29;2.33;;;1.43;;
19161;SDS011;9713;48.140;11.530;2023-04-24T18:02:14;2.17;;;1.20;;
19161;SDS011;9713;48.140;11.530;2023-04-24T18:05:56;2.87;;;1.10;;
19161;SDS011;9713;48.140;11.530;2023-04-24T18:09:39;1.90;;;1.10;;
19161;SDS011;9713;48.140;11.530;2023-04-24T18:13:23;1.87;;;1.20;;
19161;SDS011;9713;48.140;11.530;2023-04-24T18:17:05;1.20;;;1.00;;
19161;SDS011;9713;48.140;11.530;2023-04-24T18:20:50;2.63;;;1.13;;
19161;SDS011;9713;48.140;11.530;2023-04-24T18:24:33;1.47;;;1.10;;
19161;SDS011;9713;48.140;11.530;2023-04-24T18:28:15;1.10;;;0.80;;
19161;SDS011;9713;48.140;11.530;2023-04-24T18:31:58;1.70;;;1.20;;
19161;SDS011;9713;48.140;11.530;2023-04-24T18:35:41;2.10;;;1.10;;
19161;SDS011;9713;48.140;11.530;2023-04-24T18:39:25;1.47;;;1.13;;
19161;SDS011;9713;48.140;11.530;2023-04-24T18:43:08;1.07;;;0.97;;
19161;SDS011;9713;48.140;11.530;2023-04-24T18:46:50;2.23;;;1.00;;
19161;SDS011;9713;48.140;11.530;2023-04-24T18:50:33;2.93;;;1.10;;
19161;SDS011;9713;48.140;11.530;2023-04-24T18:54:16;4.80;;;1.30;;
19161;SDS011;9713;48.140;11.530;2023-04-24T18:58:00;1.87;;;1.40;;
19161;SDS011;9713;48.140;11.530;2023-04-24T19:01:43;1.87;;;1.30;;
19161;SDS011;9713;48.140;11.530;2023-04-24T19:05:26;4.00;;;1.50;;
19161;SDS011;9713;48.140;11.530;2023-04-24T19:09:09;2.07;;;1.27;;
19161;SDS011;9713;48.140;11.530;2023-04-24T19:12:51;2.90;;;1.50;;
19161;SDS011;9713;48.140;11.530;2023-04-24T19:16:38;1.87;;;1.20;;
19161;SDS011;9713;48.140;11.530;2023-04-24T19:20:20;1.87;;;1.30;;
19161;SDS011;9713;48.140;11.530;2023-04-24T19:24:03;1.67;;;1.40;;
19161;SDS011;9713;48.140;11.530;2023-04-24T19:27:46;4.93;;;1.70;;
19161;SDS011;9713;48.140;11.530;2023-04-24T19:31:29;3.17;;;1.60;;
19161;SDS011;9713;48.140;11.530;2023-04-24T19:35:13;2.60;;;1.60;;
19161;SDS011;9713;48.140;11.530;2023-04-24T19:38:56;1.70;;;1.50;;
19161;SDS011;9713;48.140;11.530;2023-04-24T19:42:38;2.73;;;1.80;;
19161;SDS011;9713;48.140;11.530;2023-04-24T19:46:25;2.27;;;1.63;;
19161;SDS011;9713;48.140;11.530;2023-04-24T19:50:08;3.80;;;2.00;;
19161;SDS011;9713;48.140;11.530;2023-04-24T19:53:52;4.00;;;1.80;;
19161;SDS011;9713;48.140;11.530;2023-04-24T19:57:34;3.97;;;1.60;;
19161;SDS011;9713;48.140;11.530;2023-04-24T20:01:17;2.00;;;1.57;;
19161;SDS011;9713;48.140;11.530;2023-04-24T20:05:00;2.93;;;1.57;;
19161;SDS011;9713;48.140;11.530;2023-04-24T20:08:43;2.10;;;1.40;;
19161;SDS011;9713;48.140;11.530;2023-04-24T20:12:27;2.60;;;1.57;;
19161;SDS011;9713;48.140;11.530;2023-04-24T20:16:13;2.13;;;1.67;;
19161;SDS011;9713;48.140;11.530;2023-04-24T20:19:56;2.63;;;1.40;;
19161;SDS011;9713;48.140;11.530;2023-04-24T20:23:38;3.87;;;1.97;;
19161;SDS011;9713;48.140;11.530;2023-04-24T20:27:21;3.33;;;1.80;;
19161;SDS011;9713;48.140;11.530;2023-04-24T20:31:05;1.80;;;1.40;;
19161;SDS011;9713;48.140;11.530;2023-04-24T20:34:48;2.40;;;1.50;;
19161;SDS011;9713;48.140;11.530;2023-04-24T20:38:31;2.50;;;1.80;;
19161;SDS011;9713;48.140;11.530;2023-04-24T20:42:13;2.93;;;1.70;;
19161;SDS011;9713;48.140;11.530;2023-04-24T20:45:56;3.40;;;1.80;;
19161;SDS011;9713;48.140;11.530;2023-04-24T20:49:40;2.30;;;1.90;;
19161;SDS011;9713;48.140;11.530;2023-04-24T20:53:23;2.67;;;1.80;;
19161;SDS011;9713;48.140;11.530;2023-04-24T20:57:06;2.77;;;1.60;;
19161;SDS011;9713;48.140;11.530;2023-04-24T21:00:49;1.30;;;1.20;;
19161;SDS011;9713;48.140;11.530;2023-04-24T21:04:32;2.47;;;1.60;;
19161;SDS011;9713;48.140;11.530;2023-04-24T21:08:20;3.20;;;1.70;;
19161;SDS011;9713;48.140;11.530;2023-04-24T21:12:02;2.97;;;1.60;;
19161;SDS011;9713;48.140;11.530;2023-04-24T21:15:45;2.90;;;1.80;;
19161;SDS011;9713;48.140;11.530;2023-04-24T21:19:28;2.43;;;1.80;;
19161;SDS011;9713;48.140;11.530;2023-04-24T21:23:11;3.03;;;2.00;;
19161;SDS011;9713;48.140;11.530;2023-04-24T21:26:55;3.93;;;2.10;;
19161;SDS011;9713;48.140;11.530;2023-04-24T21:30:37;3.93;;;2.00;;
19161;SDS011;9713;48.140;11.530;2023-04-24T21:34:26;3.87;;;2.13;;
19161;SDS011;9713;48.140;11.530;2023-04-24T21:38:09;2.80;;;2.00;;
19161;SDS011;9713;48.140;11.530;2023-04-24T21:41:51;3.37;;;2.03;;
19161;SDS011;9713;48.140;11.530;2023-04-24T21:45:35;3.70;;;2.00;;
19161;SDS011;9713;48.140;11.530;2023-04-24T21:49:18;4.03;;;1.73;;
19161;SDS011;9713;48.140;11.530;2023-04-24T21:53:04;3.30;;;1.80;;
19161;SDS011;9713;48.140;11.530;2023-04-24T21:56:46;3.57;;;2.00;;
19161;SDS011;9713;48.140;11.530;2023-04-24T22:00:29;3.93;;;2.30;;
19161;SDS011;9713;48.140;11.530;2023-04-24T22:04:15;3.93;;;2.00;;
19161;SDS011;9713;48.140;11.530;2023-04-24T22:07:58;3.73;;;2.20;;
19161;SDS011;9713;48.140;11.530;2023-04-24T22:11:41;2.70;;;1.77;;
19161;SDS011;9713;48.140;11.530;2023-04-24T22:15:24;3.93;;;1.90;;
19161;SDS011;9713;48.140;11.530;2023-04-24T22:19:07;2.70;;;1.80;;
19161;SDS011;9713;48.140;11.530;2023-04-24T22:22:51;3.03;;;2.07;;
19161;SDS011;9713;48.140;11.530;2023-04-24T22:26:34;1.97;;;1.70;;
19161;SDS011;9713;48.140;11.530;2023-04-24T22:30:17;2.27;;;1.70;;